sensor_id;sensor_type;location;lat;lon;timestamp;pressure;altitude;pressure_sealevel;temperature;humidity
45894;BME280;31603;51.148;16.932;2023-12-20T00:01:16;99532.56;;;4.77;100.00
45894;BME280;31603;51.148;16.932;2023-12-20T00:03:45;99651.81;;;5.56;100.00
45894;BME280;31603;51.148;16.932;2023-12-20T00:06:12;99640.22;;;5.54;100.00
45894;BME280;31603;51.148;16.932;2023-12-20T00:08:39;99641.28;;;5.53;100.00
45894;BME280;31603;51.148;16.932;2023-12-20T00:11:08;99633.09;;;5.53;100.00
45894;BME280;31603;51.148;16.932;2023-12-20T00:13:34;99642.69;;;5.49;100.00
45894;BME280;31603;51.148;16.932;2023-12-20T00:16:07;99570.91;;;5.27;100.00
45894;BME280;31603;51.148;16.932;2023-12-20T00:18:36;99626.84;;;5.59;100.00
45894;BME280;31603;51.148;16.932;2023-12-20T00:21:05;99569.06;;;5.13;100.00
45894;BME280;31603;51.148;16.932;2023-12-20T00:23:33;99625.56;;;5.55;100.00
45894;BME280;31603;51.148;16.932;2023-12-20T00:26:00;99633.56;;;5.57;100.00
45894;BME280;31603;51.148;16.932;2023-12-20T00:28:28;99584.38;;;5.14;100.00
45894;BME280;31603;51.148;16.932;2023-12-20T00:30:55;99640.44;;;5.52;100.00
45894;BME280;31603;51.148;16.932;2023-12-20T00:33:25;99629.44;;;5.46;100.00
45894;BME280;31603;51.148;16.932;2023-12-20T00:35:54;99625.41;;;5.42;100.00
45894;BME280;31603;51.148;16.932;2023-12-20T00:38:22;99566.63;;;5.03;100.00
45894;BME280;31603;51.148;16.932;2023-12-20T00:40:52;99503.47;;;4.63;100.00
45894;BME280;31603;51.148;16.932;2023-12-20T00:43:18;99625.09;;;5.51;100.00
45894;BME280;31603;51.148;16.932;2023-12-20T00:45:46;99600.78;;;5.35;100.00
45894;BME280;31603;51.148;16.932;2023-12-20T00:48:14;99621.53;;;5.51;100.00
45894;BME280;31603;51.148;16.932;2023-12-20T00:50:41;99627.66;;;5.53;100.00
45894;BME280;31603;51.148;16.932;2023-12-20T00:53:08;99618.63;;;5.52;100.00
45894;BME280;31603;51.148;16.932;2023-12-20T00:55:36;99608.00;;;5.43;100.00
45894;BME280;31603;51.148;16.932;2023-12-20T00:58:03;99568.56;;;5.24;100.00
45894;BME280;31603;51.148;16.932;2023-12-20T01:00:29;99467.25;;;4.48;100.00
45894;BME280;31603;51.148;16.932;2023-12-20T01:02:56;99612.31;;;5.52;100.00
45894;BME280;31603;51.148;16.932;2023-12-20T01:05:23;99621.53;;;5.51;100.00
45894;BME280;31603;51.148;16.932;2023-12-20T01:07:50;99427.16;;;4.42;100.00
45894;BME280;31603;51.148;16.932;2023-12-20T01:10:17;99606.03;;;5.73;100.00
45894;BME280;31603;51.148;16.932;2023-12-20T01:12:45;99610.94;;;5.63;100.00
45894;BME280;31603;51.148;16.932;2023-12-20T01:15:12;99610.94;;;5.63;100.00
45894;BME280;31603;51.148;16.932;2023-12-20T01:17:39;99621.31;;;5.67;100.00
45894;BME280;31603;51.148;16.932;2023-12-20T01:20:07;99624.41;;;5.64;100.00
45894;BME280;31603;51.148;16.932;2023-12-20T01:22:34;99584.13;;;5.30;100.00
45894;BME280;31603;51.148;16.932;2023-12-20T01:25:01;99621.41;;;5.59;100.00
45894;BME280;31603;51.148;16.932;2023-12-20T01:27:28;99620.63;;;5.65;100.00
45894;BME280;31603;51.148;16.932;2023-12-20T01:29:57;99530.31;;;5.17;100.00
45894;BME280;31603;51.148;16.932;2023-12-20T01:32:24;99613.13;;;5.67;100.00
45894;BME280;31603;51.148;16.932;2023-12-20T01:34:54;99572.25;;;5.52;100.00
45894;BME280;31603;51.148;16.932;2023-12-20T01:37:20;99594.13;;;5.80;100.00
45894;BME280;31603;51.148;16.932;2023-12-20T01:39:50;99598.13;;;5.78;100.00
45894;BME280;31603;51.148;16.932;2023-12-20T01:42:18;99573.84;;;5.47;100.00
45894;BME280;31603;51.148;16.932;2023-12-20T01:44:47;99604.72;;;5.69;100.00
45894;BME280;31603;51.148;16.932;2023-12-20T01:47:17;99595.09;;;5.73;100.00
45894;BME280;31603;51.148;16.932;2023-12-20T01:49:43;99390.13;;;4.62;100.00
45894;BME280;31603;51.148;16.932;2023-12-20T01:52:12;99519.81;;;5.14;100.00
45894;BME280;31603;51.148;16.932;2023-12-20T01:54:40;99564.91;;;5.53;100.00
45894;BME280;31603;51.148;16.932;2023-12-20T01:57:09;99521.66;;;5.50;100.00
45894;BME280;31603;51.148;16.932;2023-12-20T01:59:37;99573.09;;;5.74;100.00
45894;BME280;31603;51.148;16.932;2023-12-20T02:02:07;99394.41;;;4.71;100.00
45894;BME280;31603;51.148;16.932;2023-12-20T02:04:35;99540.28;;;5.46;100.00
45894;BME280;31603;51.148;16.932;2023-12-20T02:07:03;99559.84;;;5.71;100.00
45894;BME280;31603;51.148;16.932;2023-12-20T02:09:31;99524.00;;;5.53;100.00
45894;BME280;31603;51.148;16.932;2023-12-20T02:11:59;99543.66;;;5.70;100.00
45894;BME280;31603;51.148;16.932;2023-12-20T02:14:26;99484.66;;;5.04;100.00
45894;BME280;31603;51.148;16.932;2023-12-20T02:16:53;99488.94;;;5.28;100.00
45894;BME280;31603;51.148;16.932;2023-12-20T02:19:20;99548.72;;;5.51;100.00
45894;BME280;31603;51.148;16.932;2023-12-20T02:21:49;99525.22;;;5.50;100.00
45894;BME280;31603;51.148;16.932;2023-12-20T02:24:15;99549.31;;;5.68;100.00
45894;BME280;31603;51.148;16.932;2023-12-20T02:26:43;99550.94;;;5.63;100.00
45894;BME280;31603;51.148;16.932;2023-12-20T02:29:10;99462.63;;;4.99;100.00
45894;BME280;31603;51.148;16.932;2023-12-20T02:31:37;99547.63;;;5.46;100.00
45894;BME280;31603;51.148;16.932;2023-12-20T02:34:05;99416.97;;;4.65;100.00
45894;BME280;31603;51.148;16.932;2023-12-20T02:36:32;99551.44;;;5.51;100.00
45894;BME280;31603;51.148;16.932;2023-12-20T02:39:00;99543.78;;;5.40;100.00
45894;BME280;31603;51.148;16.932;2023-12-20T02:41:28;99545.28;;;5.43;100.00
45894;BME280;31603;51.148;16.932;2023-12-20T02:43:55;99553.41;;;5.58;100.00
45894;BME280;31603;51.148;16.932;2023-12-20T02:46:23;99538.00;;;5.28;100.00
45894;BME280;31603;51.148;16.932;2023-12-20T02:48:49;99535.28;;;5.50;100.00
45894;BME280;31603;51.148;16.932;2023-12-20T02:51:17;99530.69;;;5.50;100.00
45894;BME280;31603;51.148;16.932;2023-12-20T02:53:44;99526.78;;;5.38;100.00
45894;BME280;31603;51.148;16.932;2023-12-20T02:56:12;99531.72;;;5.28;100.00
45894;BME280;31603;51.148;16.932;2023-12-20T02:58:47;99528.97;;;5.28;100.00
45894;BME280;31603;51.148;16.932;2023-12-20T03:01:13;99523.22;;;5.38;100.00
45894;BME280;31603;51.148;16.932;2023-12-20T03:03:40;99525.28;;;5.36;100.00
45894;BME280;31603;51.148;16.932;2023-12-20T03:06:07;99523.31;;;5.29;100.00
45894;BME280;31603;51.148;16.932;2023-12-20T03:08:33;99502.56;;;5.28;100.00
45894;BME280;31603;51.148;16.932;2023-12-20T03:11:00;99485.41;;;5.13;100.00
45894;BME280;31603;51.148;16.932;2023-12-20T03:13:28;99391.63;;;4.50;100.00
45894;BME280;31603;51.148;16.932;2023-12-20T03:15:55;99390.72;;;4.43;100.00
45894;BME280;31603;51.148;16.932;2023-12-20T03:18:25;99526.19;;;5.21;100.00
45894;BME280;31603;51.148;16.932;2023-12-20T03:20:53;99519.03;;;5.20;100.00
45894;BME280;31603;51.148;16.932;2023-12-20T03:23:20;99196.09;;;3.23;100.00
45894;BME280;31603;51.148;16.932;2023-12-20T03:25:49;99379.09;;;4.34;100.00
45894;BME280;31603;51.148;16.932;2023-12-20T03:28:15;99510.59;;;5.15;100.00
45894;BME280;31603;51.148;16.932;2023-12-20T03:30:44;99515.13;;;5.08;100.00
45894;BME280;31603;51.148;16.932;2023-12-20T03:33:10;99524.22;;;5.15;100.00
45894;BME280;31603;51.148;16.932;2023-12-20T03:35:37;99501.06;;;4.90;100.00
45894;BME280;31603;51.148;16.932;2023-12-20T03:38:04;99477.03;;;4.78;100.00
45894;BME280;31603;51.148;16.932;2023-12-20T03:40:33;99521.91;;;4.97;100.00
45894;BME280;31603;51.148;16.932;2023-12-20T03:43:00;99516.47;;;4.82;100.00
45894;BME280;31603;51.148;16.932;2023-12-20T03:45:27;99524.56;;;4.91;100.00
45894;BME280;31603;51.148;16.932;2023-12-20T03:47:58;99526.84;;;4.87;100.00
45894;BME280;31603;51.148;16.932;2023-12-20T03:50:27;99510.22;;;4.67;100.00
45894;BME280;31603;51.148;16.932;2023-12-20T03:52:54;99522.22;;;4.88;100.00
45894;BME280;31603;51.148;16.932;2023-12-20T03:55:21;99469.97;;;4.48;100.00
45894;BME280;31603;51.148;16.932;2023-12-20T03:57:48;99539.06;;;4.76;100.00
45894;BME280;31603;51.148;16.932;2023-12-20T04:00:15;99521.94;;;4.82;100.00
45894;BME280;31603;51.148;16.932;2023-12-20T04:02:42;99506.91;;;4.72;100.00
45894;BME280;31603;51.148;16.932;2023-12-20T04:05:10;99522.25;;;4.73;100.00
45894;BME280;31603;51.148;16.932;2023-12-20T04:07:37;99518.84;;;4.71;100.00
45894;BME280;31603;51.148;16.932;2023-12-20T04:10:05;99516.97;;;4.71;100.00
45894;BME280;31603;51.148;16.932;2023-12-20T04:12:34;99445.13;;;4.21;100.00
45894;BME280;31603;51.148;16.932;2023-12-20T04:15:01;99520.06;;;4.68;100.00
45894;BME280;31603;51.148;16.932;2023-12-20T04:17:34;99523.94;;;4.59;100.00
45894;BME280;31603;51.148;16.932;2023-12-20T04:20:04;99524.03;;;4.51;100.00
45894;BME280;31603;51.148;16.932;2023-12-20T04:22:34;99450.91;;;4.03;100.00
45894;BME280;31603;51.148;16.932;2023-12-20T04:25:01;99526.66;;;4.59;100.00
45894;BME280;31603;51.148;16.932;2023-12-20T04:27:28;99513.41;;;4.56;100.00
45894;BME280;31603;51.148;16.932;2023-12-20T04:29:55;99541.84;;;4.68;100.00
45894;BME280;31603;51.148;16.932;2023-12-20T04:32:21;99469.03;;;4.26;100.00
45894;BME280;31603;51.148;16.932;2023-12-20T04:34:48;99531.25;;;4.58;100.00
45894;BME280;31603;51.148;16.932;2023-12-20T04:37:15;99494.00;;;4.29;100.00
45894;BME280;31603;51.148;16.932;2023-12-20T04:39:43;99523.66;;;4.54;100.00
45894;BME280;31603;51.148;16.932;2023-12-20T04:42:10;99529.97;;;4.54;100.00
45894;BME280;31603;51.148;16.932;2023-12-20T04:44:37;99526.66;;;4.59;100.00
45894;BME280;31603;51.148;16.932;2023-12-20T04:47:04;99523.72;;;4.61;100.00
45894;BME280;31603;51.148;16.932;2023-12-20T04:49:30;99464.69;;;4.31;100.00
45894;BME280;31603;51.148;16.932;2023-12-20T04:51:57;99487.34;;;4.47;100.00
45894;BME280;31603;51.148;16.932;2023-12-20T04:54:24;99507.97;;;4.41;100.00
45894;BME280;31603;51.148;16.932;2023-12-20T04:56:53;99507.13;;;4.55;100.00
45894;BME280;31603;51.148;16.932;2023-12-20T04:59:20;99506.19;;;4.63;100.00
45894;BME280;31603;51.148;16.932;2023-12-20T05:01:47;99447.53;;;4.01;100.00
45894;BME280;31603;51.148;16.932;2023-12-20T05:04:13;99507.34;;;4.54;100.00
45894;BME280;31603;51.148;16.932;2023-12-20T05:06:40;99501.88;;;4.54;100.00
45894;BME280;31603;51.148;16.932;2023-12-20T05:09:10;99346.31;;;3.47;100.00
45894;BME280;31603;51.148;16.932;2023-12-20T05:11:37;99496.34;;;4.47;100.00
45894;BME280;31603;51.148;16.932;2023-12-20T05:14:06;99489.56;;;4.28;100.00
45894;BME280;31603;51.148;16.932;2023-12-20T05:16:32;99502.25;;;4.51;100.00
45894;BME280;31603;51.148;16.932;2023-12-20T05:18:59;99459.00;;;4.12;100.00
45894;BME280;31603;51.148;16.932;2023-12-20T05:21:27;99512.31;;;4.50;100.00
45894;BME280;31603;51.148;16.932;2023-12-20T05:23:54;99493.22;;;4.35;100.00
45894;BME280;31603;51.148;16.932;2023-12-20T05:26:20;99399.13;;;3.67;100.00
45894;BME280;31603;51.148;16.932;2023-12-20T05:28:47;99515.09;;;4.57;100.00
45894;BME280;31603;51.148;16.932;2023-12-20T05:31:16;99367.69;;;3.50;100.00
45894;BME280;31603;51.148;16.932;2023-12-20T05:33:43;99489.19;;;4.17;100.00
45894;BME280;31603;51.148;16.932;2023-12-20T05:36:09;99528.25;;;4.39;100.00
45894;BME280;31603;51.148;16.932;2023-12-20T05:38:39;99514.47;;;4.25;100.00
45894;BME280;31603;51.148;16.932;2023-12-20T05:41:05;99529.56;;;4.43;100.00
45894;BME280;31603;51.148;16.932;2023-12-20T05:43:33;99465.06;;;3.99;100.00
45894;BME280;31603;51.148;16.932;2023-12-20T05:46:00;99382.69;;;3.46;100.00
45894;BME280;31603;51.148;16.932;2023-12-20T05:48:28;99502.53;;;4.26;100.00
45894;BME280;31603;51.148;16.932;2023-12-20T05:50:55;99492.84;;;4.24;100.00
45894;BME280;31603;51.148;16.932;2023-12-20T05:53:22;99521.59;;;4.41;100.00
45894;BME280;31603;51.148;16.932;2023-12-20T05:55:48;99524.41;;;4.48;100.00
45894;BME280;31603;51.148;16.932;2023-12-20T05:58:15;99494.47;;;4.18;100.00
45894;BME280;31603;51.148;16.932;2023-12-20T06:00:42;99526.38;;;4.39;100.00
45894;BME280;31603;51.148;16.932;2023-12-20T06:03:11;99528.91;;;4.41;100.00
45894;BME280;31603;51.148;16.932;2023-12-20T06:05:40;99314.84;;;3.14;100.00
45894;BME280;31603;51.148;16.932;2023-12-20T06:08:06;99521.78;;;4.40;100.00
45894;BME280;31603;51.148;16.932;2023-12-20T06:10:33;99541.97;;;4.45;100.00
45894;BME280;31603;51.148;16.932;2023-12-20T06:13:00;99519.72;;;4.42;100.00
45894;BME280;31603;51.148;16.932;2023-12-20T06:15:28;99456.03;;;3.83;100.00
45894;BME280;31603;51.148;16.932;2023-12-20T06:17:56;99531.91;;;4.46;100.00
45894;BME280;31603;51.148;16.932;2023-12-20T06:20:23;99382.97;;;3.51;100.00
45894;BME280;31603;51.148;16.932;2023-12-20T06:22:51;99508.19;;;4.25;100.00
45894;BME280;31603;51.148;16.932;2023-12-20T06:25:18;99523.38;;;4.34;100.00
45894;BME280;31603;51.148;16.932;2023-12-20T06:27:46;99520.53;;;4.27;100.00
45894;BME280;31603;51.148;16.932;2023-12-20T06:30:13;99523.75;;;4.31;100.00
45894;BME280;31603;51.148;16.932;2023-12-20T06:32:40;99514.00;;;4.37;100.00
45894;BME280;31603;51.148;16.932;2023-12-20T06:35:08;99441.72;;;3.90;100.00
45894;BME280;31603;51.148;16.932;2023-12-20T06:37:35;99522.63;;;4.40;100.00
45894;BME280;31603;51.148;16.932;2023-12-20T06:40:05;99482.91;;;4.16;100.00
45894;BME280;31603;51.148;16.932;2023-12-20T06:42:32;99525.63;;;4.30;100.00
45894;BME280;31603;51.148;16.932;2023-12-20T06:44:58;99530.38;;;4.28;100.00
45894;BME280;31603;51.148;16.932;2023-12-20T06:47:26;99522.06;;;4.30;100.00
45894;BME280;31603;51.148;16.932;2023-12-20T06:49:53;99531.25;;;4.29;100.00
45894;BME280;31603;51.148;16.932;2023-12-20T06:52:26;99496.69;;;4.00;100.00
45894;BME280;31603;51.148;16.932;2023-12-20T06:54:52;99266.03;;;2.69;100.00
45894;BME280;31603;51.148;16.932;2023-12-20T06:57:20;99522.63;;;4.25;100.00
45894;BME280;31603;51.148;16.932;2023-12-20T06:59:47;99434.91;;;3.56;100.00
45894;BME280;31603;51.148;16.932;2023-12-20T07:02:14;99396.31;;;3.37;100.00
45894;BME280;31603;51.148;16.932;2023-12-20T07:04:41;99379.16;;;3.22;100.00
45894;BME280;31603;51.148;16.932;2023-12-20T07:07:10;99539.13;;;4.24;100.00
45894;BME280;31603;51.148;16.932;2023-12-20T07:09:38;99538.28;;;4.23;100.00
45894;BME280;31603;51.148;16.932;2023-12-20T07:12:10;99534.44;;;4.18;100.00
45894;BME280;31603;51.148;16.932;2023-12-20T07:14:42;99427.13;;;3.53;100.00
45894;BME280;31603;51.148;16.932;2023-12-20T07:17:08;99544.09;;;4.20;100.00
45894;BME280;31603;51.148;16.932;2023-12-20T07:19:38;99545.81;;;4.21;100.00
45894;BME280;31603;51.148;16.932;2023-12-20T07:22:06;99554.63;;;4.23;100.00
45894;BME280;31603;51.148;16.932;2023-12-20T07:24:33;99560.06;;;4.23;100.00
45894;BME280;31603;51.148;16.932;2023-12-20T07:27:00;99550.78;;;4.18;100.00
45894;BME280;31603;51.148;16.932;2023-12-20T07:29:27;99474.94;;;3.62;100.00
45894;BME280;31603;51.148;16.932;2023-12-20T07:31:55;99430.25;;;3.27;100.00
45894;BME280;31603;51.148;16.932;2023-12-20T07:34:22;99550.94;;;4.16;100.00
45894;BME280;31603;51.148;16.932;2023-12-20T07:36:49;99486.34;;;3.80;100.00
45894;BME280;31603;51.148;16.932;2023-12-20T07:39:15;99508.03;;;3.89;100.00
45894;BME280;31603;51.148;16.932;2023-12-20T07:41:42;99554.78;;;4.07;100.00
45894;BME280;31603;51.148;16.932;2023-12-20T07:44:09;99531.75;;;3.95;100.00
45894;BME280;31603;51.148;16.932;2023-12-20T07:46:36;99551.88;;;4.08;100.00
45894;BME280;31603;51.148;16.932;2023-12-20T07:49:05;99371.03;;;2.99;100.00
45894;BME280;31603;51.148;16.932;2023-12-20T07:51:35;99556.94;;;4.12;100.00
45894;BME280;31603;51.148;16.932;2023-12-20T07:54:02;99556.09;;;4.11;100.00
45894;BME280;31603;51.148;16.932;2023-12-20T07:56:30;99548.38;;;4.00;100.00
45894;BME280;31603;51.148;16.932;2023-12-20T07:58:56;99563.78;;;4.07;100.00
45894;BME280;31603;51.148;16.932;2023-12-20T08:01:23;99520.00;;;3.79;100.00
45894;BME280;31603;51.148;16.932;2023-12-20T08:03:50;99427.16;;;3.07;100.00
45894;BME280;31603;51.148;16.932;2023-12-20T08:06:18;99529.03;;;3.95;100.00
45894;BME280;31603;51.148;16.932;2023-12-20T08:08:45;99564.06;;;4.13;100.00
45894;BME280;31603;51.148;16.932;2023-12-20T08:11:12;99512.88;;;3.78;100.00
45894;BME280;31603;51.148;16.932;2023-12-20T08:13:38;99564.81;;;4.06;100.00
45894;BME280;31603;51.148;16.932;2023-12-20T08:16:06;99558.47;;;4.14;100.00
45894;BME280;31603;51.148;16.932;2023-12-20T08:18:32;99561.56;;;4.11;100.00
45894;BME280;31603;51.148;16.932;2023-12-20T08:21:00;99435.13;;;3.31;100.00
45894;BME280;31603;51.148;16.932;2023-12-20T08:23:28;99573.75;;;4.15;100.00
45894;BME280;31603;51.148;16.932;2023-12-20T08:25:57;99528.09;;;3.88;100.00
45894;BME280;31603;51.148;16.932;2023-12-20T08:28:23;99573.38;;;4.18;100.00
45894;BME280;31603;51.148;16.932;2023-12-20T08:30:50;99547.03;;;3.96;100.00
45894;BME280;31603;51.148;16.932;2023-12-20T08:33:19;99523.59;;;3.95;100.00
45894;BME280;31603;51.148;16.932;2023-12-20T08:35:45;99565.22;;;4.18;100.00
45894;BME280;31603;51.148;16.932;2023-12-20T08:38:12;99576.94;;;4.19;100.00
45894;BME280;31603;51.148;16.932;2023-12-20T08:40:44;99537.69;;;3.98;100.00
45894;BME280;31603;51.148;16.932;2023-12-20T08:43:11;99440.69;;;3.15;100.00
45894;BME280;31603;51.148;16.932;2023-12-20T08:45:38;99571.31;;;4.20;100.00
45894;BME280;31603;51.148;16.932;2023-12-20T08:48:06;99581.81;;;4.23;100.00
45894;BME280;31603;51.148;16.932;2023-12-20T08:50:33;99541.88;;;3.86;100.00
45894;BME280;31603;51.148;16.932;2023-12-20T08:53:00;99581.19;;;4.21;100.00
45894;BME280;31603;51.148;16.932;2023-12-20T08:55:26;99560.31;;;4.14;100.00
45894;BME280;31603;51.148;16.932;2023-12-20T08:57:55;99582.06;;;4.37;100.00
45894;BME280;31603;51.148;16.932;2023-12-20T09:00:22;99583.47;;;4.32;100.00
45894;BME280;31603;51.148;16.932;2023-12-20T09:02:49;99547.28;;;4.09;100.00
45894;BME280;31603;51.148;16.932;2023-12-20T09:05:16;99581.28;;;4.28;100.00
45894;BME280;31603;51.148;16.932;2023-12-20T09:07:43;99596.59;;;4.29;100.00
45894;BME280;31603;51.148;16.932;2023-12-20T09:10:10;99568.22;;;4.23;100.00
45894;BME280;31603;51.148;16.932;2023-12-20T09:12:36;99457.06;;;3.45;100.00
45894;BME280;31603;51.148;16.932;2023-12-20T09:15:07;99526.31;;;3.95;100.00
45894;BME280;31603;51.148;16.932;2023-12-20T09:17:33;99569.25;;;4.22;100.00
45894;BME280;31603;51.148;16.932;2023-12-20T09:20:00;99558.53;;;4.21;100.00
45894;BME280;31603;51.148;16.932;2023-12-20T09:22:27;99424.84;;;3.42;100.00
45894;BME280;31603;51.148;16.932;2023-12-20T09:24:54;99584.09;;;4.34;100.00
45894;BME280;31603;51.148;16.932;2023-12-20T09:27:21;99481.19;;;3.85;100.00
45894;BME280;31603;51.148;16.932;2023-12-20T09:29:48;99376.69;;;3.12;100.00
45894;BME280;31603;51.148;16.932;2023-12-20T09:32:16;99527.28;;;4.17;100.00
45894;BME280;31603;51.148;16.932;2023-12-20T09:34:43;99583.94;;;4.51;100.00
45894;BME280;31603;51.148;16.932;2023-12-20T09:37:09;99595.84;;;4.50;100.00
45894;BME280;31603;51.148;16.932;2023-12-20T09:39:36;99589.41;;;4.51;100.00
45894;BME280;31603;51.148;16.932;2023-12-20T09:42:04;99581.50;;;4.56;100.00
45894;BME280;31603;51.148;16.932;2023-12-20T09:44:31;99573.53;;;4.54;100.00
45894;BME280;31603;51.148;16.932;2023-12-20T09:47:02;99566.00;;;4.56;100.00
45894;BME280;31603;51.148;16.932;2023-12-20T09:49:31;99490.59;;;4.13;100.00
45894;BME280;31603;51.148;16.932;2023-12-20T09:52:00;99538.75;;;4.42;100.00
45894;BME280;31603;51.148;16.932;2023-12-20T09:54:28;99541.22;;;4.51;100.00
45894;BME280;31603;51.148;16.932;2023-12-20T09:56:56;99570.34;;;4.66;100.00
45894;BME280;31603;51.148;16.932;2023-12-20T09:59:24;99560.28;;;4.66;100.00
45894;BME280;31603;51.148;16.932;2023-12-20T10:01:51;99437.31;;;3.89;100.00
45894;BME280;31603;51.148;16.932;2023-12-20T10:04:21;99560.38;;;4.73;100.00
45894;BME280;31603;51.148;16.932;2023-12-20T10:06:50;99566.56;;;4.81;100.00
45894;BME280;31603;51.148;16.932;2023-12-20T10:09:17;99495.94;;;4.21;100.00
45894;BME280;31603;51.148;16.932;2023-12-20T10:11:44;99568.56;;;4.73;100.00
45894;BME280;31603;51.148;16.932;2023-12-20T10:14:12;99561.84;;;4.75;100.00
45894;BME280;31603;51.148;16.932;2023-12-20T10:16:40;99518.22;;;4.54;100.00
45894;BME280;31603;51.148;16.932;2023-12-20T10:19:07;99557.91;;;4.93;100.00
45894;BME280;31603;51.148;16.932;2023-12-20T10:21:34;99554.13;;;5.09;100.00
45894;BME280;31603;51.148;16.932;2023-12-20T10:24:02;99555.16;;;5.44;100.00
45894;BME280;31603;51.148;16.932;2023-12-20T10:26:29;99471.47;;;5.23;100.00
45894;BME280;31603;51.148;16.932;2023-12-20T10:29:00;99418.88;;;4.86;100.00
45894;BME280;31603;51.148;16.932;2023-12-20T10:31:30;99534.81;;;6.39;100.00
45894;BME280;31603;51.148;16.932;2023-12-20T10:33:57;99482.03;;;5.97;100.00
45894;BME280;31603;51.148;16.932;2023-12-20T10:36:25;99526.44;;;6.12;100.00
45894;BME280;31603;51.148;16.932;2023-12-20T10:38:55;99487.31;;;6.05;100.00
45894;BME280;31603;51.148;16.932;2023-12-20T10:41:26;99526.09;;;6.50;100.00
45894;BME280;31603;51.148;16.932;2023-12-20T10:43:56;99518.91;;;6.14;100.00
45894;BME280;31603;51.148;16.932;2023-12-20T10:46:26;99517.66;;;6.51;100.00
45894;BME280;31603;51.148;16.932;2023-12-20T10:48:54;99479.50;;;6.65;100.00
45894;BME280;31603;51.148;16.932;2023-12-20T10:51:21;99471.16;;;7.74;100.00
45894;BME280;31603;51.148;16.932;2023-12-20T10:53:50;99364.19;;;7.03;100.00
45894;BME280;31603;51.148;16.932;2023-12-20T10:56:20;99491.16;;;8.01;100.00
45894;BME280;31603;51.148;16.932;2023-12-20T10:58:50;99495.66;;;7.14;100.00
45894;BME280;31603;51.148;16.932;2023-12-20T11:01:18;99377.03;;;5.93;100.00
45894;BME280;31603;51.148;16.932;2023-12-20T11:03:48;99492.88;;;6.46;100.00
45894;BME280;31603;51.148;16.932;2023-12-20T11:06:27;99473.06;;;6.79;100.00
45894;BME280;31603;51.148;16.932;2023-12-20T11:09:03;99466.38;;;6.47;100.00
45894;BME280;31603;51.148;16.932;2023-12-20T11:11:39;99478.50;;;8.00;100.00
45894;BME280;31603;51.148;16.932;2023-12-20T11:14:15;99455.97;;;7.65;100.00
45894;BME280;31603;51.148;16.932;2023-12-20T11:16:47;99465.81;;;7.19;100.00
45894;BME280;31603;51.148;16.932;2023-12-20T11:19:15;99455.75;;;7.73;100.00
45894;BME280;31603;51.148;16.932;2023-12-20T11:21:43;99439.13;;;7.35;100.00
45894;BME280;31603;51.148;16.932;2023-12-20T11:24:09;99347.19;;;6.33;100.00
45894;BME280;31603;51.148;16.932;2023-12-20T11:26:36;99403.22;;;6.22;100.00
45894;BME280;31603;51.148;16.932;2023-12-20T11:29:33;99436.47;;;6.39;100.00
45894;BME280;31603;51.148;16.932;2023-12-20T11:32:01;99325.97;;;5.59;100.00
45894;BME280;31603;51.148;16.932;2023-12-20T11:34:29;99431.06;;;6.04;100.00
45894;BME280;31603;51.148;16.932;2023-12-20T11:36:58;99433.44;;;6.20;100.00
45894;BME280;31603;51.148;16.932;2023-12-20T11:39:26;99399.84;;;5.92;100.00
45894;BME280;31603;51.148;16.932;2023-12-20T11:41:54;99439.47;;;6.09;100.00
45894;BME280;31603;51.148;16.932;2023-12-20T11:44:21;99422.94;;;6.17;100.00
45894;BME280;31603;51.148;16.932;2023-12-20T11:46:49;99385.94;;;6.08;100.00
45894;BME280;31603;51.148;16.932;2023-12-20T11:49:16;99413.44;;;6.13;100.00
45894;BME280;31603;51.148;16.932;2023-12-20T11:51:44;99412.03;;;6.24;100.00
45894;BME280;31603;51.148;16.932;2023-12-20T11:54:10;99404.50;;;6.26;100.00
45894;BME280;31603;51.148;16.932;2023-12-20T11:56:37;99402.13;;;6.16;100.00
45894;BME280;31603;51.148;16.932;2023-12-20T11:59:04;99407.38;;;6.11;100.00
45894;BME280;31603;51.148;16.932;2023-12-20T12:01:32;99248.28;;;5.13;100.00
45894;BME280;31603;51.148;16.932;2023-12-20T12:04:05;99394.78;;;6.10;100.00
45894;BME280;31603;51.148;16.932;2023-12-20T12:06:34;99324.41;;;5.71;100.00
45894;BME280;31603;51.148;16.932;2023-12-20T12:09:01;99296.09;;;5.44;100.00
45894;BME280;31603;51.148;16.932;2023-12-20T12:11:30;99380.25;;;6.03;100.00
45894;BME280;31603;51.148;16.932;2023-12-20T12:13:57;99381.31;;;6.09;100.00
45894;BME280;31603;51.148;16.932;2023-12-20T12:16:25;99370.81;;;6.12;100.00
45894;BME280;31603;51.148;16.932;2023-12-20T12:18:56;99359.69;;;6.07;100.00
45894;BME280;31603;51.148;16.932;2023-12-20T12:21:25;99369.56;;;6.08;100.00
45894;BME280;31603;51.148;16.932;2023-12-20T12:23:51;99278.41;;;5.33;100.00
45894;BME280;31603;51.148;16.932;2023-12-20T12:26:18;99228.88;;;5.23;100.00
45894;BME280;31603;51.148;16.932;2023-12-20T12:28:45;99367.84;;;6.00;100.00
45894;BME280;31603;51.148;16.932;2023-12-20T12:31:15;99362.41;;;6.07;100.00
45894;BME280;31603;51.148;16.932;2023-12-20T12:33:42;99361.75;;;6.05;100.00
45894;BME280;31603;51.148;16.932;2023-12-20T12:36:10;99364.50;;;6.05;100.00
45894;BME280;31603;51.148;16.932;2023-12-20T12:38:39;99305.66;;;5.61;100.00
45894;BME280;31603;51.148;16.932;2023-12-20T12:41:12;99359.38;;;5.95;100.00
45894;BME280;31603;51.148;16.932;2023-12-20T12:43:40;99251.97;;;5.34;100.00
45894;BME280;31603;51.148;16.932;2023-12-20T12:46:07;99355.56;;;5.90;100.00
45894;BME280;31603;51.148;16.932;2023-12-20T12:48:34;99312.75;;;5.55;100.00
45894;BME280;31603;51.148;16.932;2023-12-20T12:51:00;99175.72;;;4.77;100.00
45894;BME280;31603;51.148;16.932;2023-12-20T12:53:27;99342.56;;;5.57;100.00